Terminal Aerodrome Forecast
Issued by NWS

Home | Current Version | Previous Version | Text Only | Print | Product List | Glossary Off
Versions: 1 2 3 4 5 6 7 8 9 10 11 12 13 14 15

000
FTUS43 KFGF 141612 AAA
TAFBJI
TAF AMD
KBJI 141612Z 1416/1512 19009KT 2SM -SN BKN012 OVC020
      TEMPO 1416/1418 1SM -SN OVC012
     FM141800 25012KT 3/4SM -SN OVC015
     FM142000 29012G20KT 1SM -SN OVC015
     FM142200 32012KT P6SM BKN020
     FM150400 32011G19KT P6SM BKN015=

USA.gov is the U.S. government's official web portal to all federal, state and local government web resources and services.